Погода Саламанкана неделю

Гуанахуато, Мексика

21 - 27 февраля
  • 21февраля
    Сегодня
    +8°
    +31°
    Ясно и безоблачно
    ВремяПогодаТемператураВлажностьДавлениеВетер, м/сВероятность осадков
    00:00Ясно и безоблачно+16°C53 %630 мм2.6 м/с2 %
    03:00Ясно и безоблачно+12°C62 %629 мм2.4 м/с2 %
    06:00Ясно и безоблачно+11°C59 %629 мм1.6 м/с2 %
    09:00Ясно и безоблачно+12°C48 %630 мм0.6 м/с2 %
    12:00Ясно и безоблачно+25°C20 %633 мм0.7 м/с2 %
    15:00Ясно и безоблачно+29°C9 %630 мм0.1 м/с2 %
    18:00Ясно и безоблачно+28°C27 %629 мм0.5 м/с2 %
    21:00Ясно и безоблачно+20°C21 %627 мм1.5 м/с2 %
  • 22февраля
    Четверг
    +8°
    +32°
    Ясно и безоблачно
    ВремяПогодаТемператураВлажностьДавлениеВетер, м/сВероятность осадков
    00:00Ясно и безоблачно+15°C39 %626 мм0.8 м/с2 %
    03:00Ясно и безоблачно+12°C43 %625 мм1.3 м/с2 %
    06:00Ясно и безоблачно+10°C38 %625 мм0.3 м/с2 %
    09:00Ясно и безоблачно+14°C33 %628 мм0.3 м/с2 %
    12:00Ясно и безоблачно+26°C19 %630 мм1.2 м/с2 %
    15:00Ясно и безоблачно+31°C10 %628 мм2.1 м/с2 %
    18:00Ясно и безоблачно+28°C31 %627 мм1.8 м/с2 %
    21:00Ясно и безоблачно+21°C28 %625 мм2.1 м/с2 %
  • 23февраля
    Пятница
    +11°
    +31°
    Небольшая облачность
    ВремяПогодаТемператураВлажностьДавлениеВетер, м/сВероятность осадков
    00:00Ясно и безоблачно+17°C39 %625 мм1.4 м/с2 %
    03:00Ясно и безоблачно+14°C44 %624 мм0.3 м/с2 %
    06:00Ясно и безоблачно+10°C58 %623 мм1.4 м/с2 %
    09:00Ясно и безоблачно+14°C37 %626 мм0.6 м/с2 %
    12:00Ясно и безоблачно+27°C16 %628 мм0.2 м/с2 %
    15:00Небольшая облачность+31°C9 %627 мм1.3 м/с2 %
    18:00Ясно и безоблачно+29°C22 %626 мм0.8 м/с2 %
    21:00Ясно и безоблачно+22°C37 %626 мм3.4 м/с2 %
  • 24февраля
    Суббота
    +11°
    +31°
    Небольшая облачность
    ВремяПогодаТемператураВлажностьДавлениеВетер, м/сВероятность осадков
    00:00Ясно и безоблачно+17°C65 %627 мм3.4 м/с2 %
    03:00Ясно и безоблачно+13°C79 %626 мм2.8 м/с2 %
    06:00Ясно и безоблачно+12°C88 %627 мм2.7 м/с2 %
    09:00Ясно и безоблачно+14°C66 %629 мм2.8 м/с2 %
    12:00Ясно и безоблачно+24°C35 %631 мм2.6 м/с2 %
    15:00Небольшая облачность+30°C16 %629 мм1.1 м/с2 %
    18:00Практически безоблачно+29°C17 %628 мм1.1 м/с2 %
    21:00Практически безоблачно+22°C51 %629 мм4.8 м/с2 %
Мы используем cookies
Соглашаюсь